Time;durP1;ratioP1;P1;durP2;ratioP2;P2;SDS_P1;SDS_P2;PMS_P1;PMS_P2;Temp;Humidity;BMP_temperature;BMP_pressure;BME280_temperature;BME280_humidity;BME280_pressure;Samples;Min_cycle;Max_cycle;Signal;HPM_P1;HPM_P2
2021/05/28 07:13:34;;;;;;;5.15;2.97;;;;;;;;;;6238491;22;20092;-43
2021/05/28 07:16:00;;;;;;;5.85;2.55;;;;;;;;;;6264037;22;20008;-55
2021/05/28 07:18:26;;;;;;;5.03;2.85;;;;;;;;;;6241429;22;20007;-46
2021/05/28 07:20:52;;;;;;;3.50;2.60;;;;;;;;;;6241785;22;20051;-43
2021/05/28 07:23:23;;;;;;;4.28;2.33;;;;;;;;;;6241710;22;20012;-43
2021/05/28 07:25:49;;;;;;;3.55;2.38;;;;;;;;;;6242065;22;20015;-43
2021/05/28 07:28:15;;;;;;;3.05;2.20;;;;;;;;;;6241457;22;20008;-43
2021/05/28 07:30:42;;;;;;;4.85;2.47;;;;;;;;;;6242013;22;20001;-43
2021/05/28 07:33:08;;;;;;;4.68;2.53;;;;;;;;;;6241826;22;20277;-43
2021/05/28 07:35:34;;;;;;;4.30;2.42;;;;;;;;;;6266073;22;20087;-42
2021/05/28 07:38:00;;;;;;;3.88;2.55;;;;;;;;;;6241154;22;20027;-44
2021/05/28 07:40:26;;;;;;;3.13;2.70;;;;;;;;;;6241797;22;20004;-42
2021/05/28 07:42:52;;;;;;;2.85;2.28;;;;;;;;;;6242450;22;20022;-46
2021/05/28 07:45:18;;;;;;;3.33;2.08;;;;;;;;;;6266581;22;20098;-47
2021/05/28 07:47:44;;;;;;;3.63;2.25;;;;;;;;;;6264312;22;20428;-45
2021/05/28 07:50:11;;;;;;;3.58;2.00;;;;;;;;;;6240549;22;20004;-51
2021/05/28 07:52:37;;;;;;;2.88;2.40;;;;;;;;;;6242361;22;20000;-47
2021/05/28 07:55:04;;;;;;;3.58;2.25;;;;;;;;;;6243540;22;20072;-46
2021/05/28 07:57:30;;;;;;;5.55;2.35;;;;;;;;;;6264991;22;20012;-46
2021/05/28 07:59:56;;;;;;;3.17;2.08;;;;;;;;;;6239697;22;20043;-48
2021/05/28 08:02:22;;;;;;;4.10;1.90;;;;;;;;;;6242473;22;20493;-48
2021/05/28 08:04:51;;;;;;;3.08;1.80;;;;;;;;;;6241887;22;20019;-48
2021/05/28 08:07:17;;;;;;;2.85;2.05;;;;;;;;;;6243118;22;20429;-47
2021/05/28 08:09:45;;;;;;;3.50;1.90;;;;;;;;;;6243511;22;20034;-48
2021/05/28 08:12:12;;;;;;;3.30;1.98;;;;;;;;;;6243036;22;20017;-51
2021/05/28 08:14:38;;;;;;;4.00;2.03;;;;;;;;;;6266726;22;20336;-48
2021/05/28 08:17:04;;;;;;;3.05;1.90;;;;;;;;;;6243499;22;20004;-48
2021/05/28 08:19:30;;;;;;;4.30;2.10;;;;;;;;;;6243134;22;20282;-47
2021/05/28 08:21:56;;;;;;;2.95;1.85;;;;;;;;;;6243262;22;20011;-49
2021/05/28 08:24:24;;;;;;;2.67;2.00;;;;;;;;;;6243135;22;20083;-48
2021/05/28 08:26:50;;;;;;;3.38;2.05;;;;;;;;;;6266888;22;20015;-49
2021/05/28 08:29:16;;;;;;;2.15;1.80;;;;;;;;;;6243570;22;20000;-49
2021/05/28 08:31:42;;;;;;;4.32;1.90;;;;;;;;;;6243159;22;20047;-47
2021/05/28 08:34:08;;;;;;;2.67;2.20;;;;;;;;;;6243257;22;20031;-47
2021/05/28 08:36:34;;;;;;;2.13;1.80;;;;;;;;;;6266650;22;20081;-50
2021/05/28 08:39:00;;;;;;;2.20;1.70;;;;;;;;;;6243625;22;20000;-48
2021/05/28 08:41:27;;;;;;;4.00;1.98;;;;;;;;;;6242818;22;19996;-48
2021/05/28 08:43:53;;;;;;;2.75;1.90;;;;;;;;;;6243252;22;20016;-48
2021/05/28 08:46:21;;;;;;;2.53;1.75;;;;;;;;;;6243112;22;20015;-47
2021/05/28 08:48:50;;;;;;;3.30;1.90;;;;;;;;;;6243580;22;20079;-47
2021/05/28 08:51:16;;;;;;;2.60;1.95;;;;;;;;;;6242900;22;20354;-46
2021/05/28 08:53:42;;;;;;;2.58;1.80;;;;;;;;;;6243270;22;20030;-48
2021/05/28 08:56:09;;;;;;;1.95;1.67;;;;;;;;;;6242830;22;20004;-48
2021/05/28 08:58:36;;;;;;;2.55;2.35;;;;;;;;;;6241164;22;20091;-47
2021/05/28 09:01:02;;;;;;;2.20;1.63;;;;;;;;;;6242872;22;20019;-49
2021/05/28 09:03:32;;;;;;;3.83;1.90;;;;;;;;;;6243164;22;20016;-46
2021/05/28 09:06:01;;;;;;;3.35;1.90;;;;;;;;;;6242633;22;20000;-47
2021/05/28 09:08:31;;;;;;;3.05;1.90;;;;;;;;;;6242589;22;20119;-48
2021/05/28 09:11:05;;;;;;;2.60;1.65;;;;;;;;;;6242577;22;20428;-49
2021/05/28 09:13:32;;;;;;;2.88;1.88;;;;;;;;;;6242400;22;20086;-47
2021/05/28 09:16:09;;;;;;;2.22;1.65;;;;;;;;;;6242259;22;20036;-48
2021/05/28 09:18:52;;;;;;;2.85;1.92;;;;;;;;;;6240265;22;20125;-47
2021/05/28 09:21:30;;;;;;;2.75;1.83;;;;;;;;;;6243337;22;20000;-45
2021/05/28 09:23:56;;;;;;;2.30;1.83;;;;;;;;;;6242070;22;20105;-47
2021/05/28 09:26:26;;;;;;;2.00;1.65;;;;;;;;;;6242049;22;20001;-48
2021/05/28 09:28:54;;;;;;;2.22;1.60;;;;;;;;;;6242252;22;20004;-48
2021/05/28 09:31:27;;;;;;;3.42;1.70;;;;;;;;;;6242455;22;20011;-47
2021/05/28 09:33:55;;;;;;;2.05;1.60;;;;;;;;;;6241900;22;19997;-47
2021/05/28 09:36:37;;;;;;;2.53;1.70;;;;;;;;;;6242526;22;20079;-46
2021/05/28 09:39:10;;;;;;;3.47;1.70;;;;;;;;;;6240758;22;20092;-47
2021/05/28 09:41:49;;;;;;;2.28;1.52;;;;;;;;;;6241046;22;20000;-47
2021/05/28 09:44:23;;;;;;;3.08;1.80;;;;;;;;;;6242018;22;20077;-45
2021/05/28 09:47:13;;;;;;;2.55;1.80;;;;;;;;;;6242095;22;20011;-48
2021/05/28 09:49:42;;;;;;;2.25;1.70;;;;;;;;;;6240824;22;20024;-46
2021/05/28 09:52:11;;;;;;;2.25;1.77;;;;;;;;;;6240311;22;20000;-48
2021/05/28 09:54:37;;;;;;;3.05;1.80;;;;;;;;;;6240481;22;20004;-46
2021/05/28 09:57:04;;;;;;;2.92;2.17;;;;;;;;;;6240181;22;20032;-49
2021/05/28 09:59:44;;;;;;;3.95;2.30;;;;;;;;;;6240927;22;20011;-44
2021/05/28 10:02:22;;;;;;;2.92;2.13;;;;;;;;;;6240363;22;20011;-45
2021/05/28 10:04:55;;;;;;;3.42;2.30;;;;;;;;;;6266009;22;20023;-44
2021/05/28 10:07:21;;;;;;;2.67;2.00;;;;;;;;;;6241785;22;20001;-45
2021/05/28 10:09:48;;;;;;;2.60;2.00;;;;;;;;;;6241319;22;20008;-44
2021/05/28 10:12:14;;;;;;;3.97;2.20;;;;;;;;;;6241363;22;20016;-46
2021/05/28 10:14:40;;;;;;;4.13;2.10;;;;;;;;;;6239797;23;20066;-42
2021/05/28 10:17:07;;;;;;;2.72;1.98;;;;;;;;;;6240830;22;20019;-45
2021/05/28 10:19:33;;;;;;;2.83;1.98;;;;;;;;;;6240462;23;20007;-45
2021/05/28 10:22:03;;;;;;;2.78;2.17;;;;;;;;;;6265400;22;20064;-46
2021/05/28 10:24:30;;;;;;;3.40;2.50;;;;;;;;;;6241927;22;20012;-46
2021/05/28 10:26:56;;;;;;;4.75;3.20;;;;;;;;;;6241708;22;20083;-46
2021/05/28 10:29:29;;;;;;;4.45;2.60;;;;;;;;;;6242413;22;20095;-44
2021/05/28 10:31:55;;;;;;;3.38;2.42;;;;;;;;;;6239654;23;20004;-46
2021/05/28 10:34:22;;;;;;;4.85;3.00;;;;;;;;;;6241815;22;20036;-46
2021/05/28 10:36:49;;;;;;;2.97;2.35;;;;;;;;;;6241711;22;20016;-45
2021/05/28 10:39:17;;;;;;;5.23;2.63;;;;;;;;;;6241868;22;20000;-49
2021/05/28 10:41:44;;;;;;;4.63;2.80;;;;;;;;;;6241719;22;20100;-44
2021/05/28 10:44:13;;;;;;;4.18;2.60;;;;;;;;;;6242171;22;20009;-46
2021/05/28 10:46:51;;;;;;;4.03;2.80;;;;;;;;;;6242184;22;20000;-47
2021/05/28 10:49:17;;;;;;;3.50;2.90;;;;;;;;;;6241813;22;20008;-47
2021/05/28 10:51:46;;;;;;;3.78;2.88;;;;;;;;;;6242067;22;20361;-47
2021/05/28 10:54:18;;;;;;;3.92;2.80;;;;;;;;;;6242689;22;20012;-46
2021/05/28 10:56:45;;;;;;;4.40;2.60;;;;;;;;;;6242120;22;19996;-48
2021/05/28 10:59:15;;;;;;;5.47;3.30;;;;;;;;;;6240287;22;19996;-46
2021/05/28 11:01:57;;;;;;;5.18;3.78;;;;;;;;;;6240498;22;20115;-48
2021/05/28 11:04:24;;;;;;;7.28;5.25;;;;;;;;;;6239017;22;20053;-48
2021/05/28 11:07:00;;;;;;;26.13;16.77;;;;;;;;;;6240519;22;20114;-49
2021/05/28 11:09:38;;;;;;;154.70;86.47;;;;;;;;;;6237048;22;20010;-46
2021/05/28 11:12:07;;;;;;;123.95;74.03;;;;;;;;;;6239727;22;20076;-47
2021/05/28 11:14:35;;;;;;;111.70;66.97;;;;;;;;;;6239646;22;20045;-47
2021/05/28 11:17:01;;;;;;;128.32;67.03;;;;;;;;;;6239292;22;20319;-46
2021/05/28 11:19:32;;;;;;;125.78;66.00;;;;;;;;;;6238812;23;20095;-45
2021/05/28 11:22:03;;;;;;;104.22;63.35;;;;;;;;;;6240141;22;19996;-47
2021/05/28 11:24:52;;;;;;;99.07;58.90;;;;;;;;;;6239574;22;20077;-47
2021/05/28 11:27:24;;;;;;;103.65;57.38;;;;;;;;;;6240656;22;20035;-50
2021/05/28 11:29:56;;;;;;;105.18;60.30;;;;;;;;;;6241916;22;20000;-50
2021/05/28 11:32:43;;;;;;;81.65;46.85;;;;;;;;;;6242413;22;20072;-45
2021/05/28 11:35:09;;;;;;;82.78;48.88;;;;;;;;;;6241508;22;20702;-48
2021/05/28 11:37:39;;;;;;;72.95;46.60;;;;;;;;;;6241835;22;20072;-46
2021/05/28 11:40:11;;;;;;;68.68;41.35;;;;;;;;;;6242303;22;20004;-50
2021/05/28 11:42:38;;;;;;;73.82;40.47;;;;;;;;;;6242532;22;20309;-48
2021/05/28 11:45:05;;;;;;;66.85;38.78;;;;;;;;;;6240350;22;20008;-49
2021/05/28 11:47:31;;;;;;;;;;;;;;;;;;6241901;22;20333;-46
2021/05/28 11:49:58;;;;;;;51.93;31.37;;;;;;;;;;6242764;22;19907;-48
2021/05/28 11:52:24;;;;;;;45.63;29.27;;;;;;;;;;6240853;22;20015;-47
2021/05/28 11:54:50;;;;;;;37.67;25.90;;;;;;;;;;6242928;22;20004;-49
2021/05/28 11:57:17;;;;;;;46.67;25.52;;;;;;;;;;6238784;22;20080;-44
2021/05/28 11:59:50;;;;;;;41.40;25.88;;;;;;;;;;6240055;22;20011;-46
2021/05/28 12:02:36;;;;;;;44.17;27.08;;;;;;;;;;6241592;22;19996;-47
2021/05/28 12:05:06;;;;;;;36.95;24.90;;;;;;;;;;6240722;23;20015;-46
2021/05/28 12:07:32;;;;;;;36.28;23.33;;;;;;;;;;6244024;22;20000;-47
2021/05/28 12:10:08;;;;;;;39.78;24.45;;;;;;;;;;6243486;22;20004;-48
2021/05/28 12:13:00;;;;;;;35.30;23.52;;;;;;;;;;6242589;22;20409;-45
2021/05/28 12:15:32;;;;;;;31.05;22.60;;;;;;;;;;6242033;23;20004;-44
2021/05/28 12:18:01;;;;;;;31.65;22.08;;;;;;;;;;6243473;23;20073;-45
2021/05/28 12:20:27;;;;;;;38.33;22.27;;;;;;;;;;6243026;22;20121;-45
2021/05/28 12:23:04;;;;;;;33.47;21.95;;;;;;;;;;6240922;23;20000;-45
2021/05/28 12:25:31;;;;;;;38.70;23.08;;;;;;;;;;6241908;22;20005;-46
2021/05/28 12:27:57;;;;;;;;;;;;;;;;;;6242752;22;20008;-46
2021/05/28 12:30:24;;;;;;;33.97;22.33;;;;;;;;;;6240884;23;19911;-45
2021/05/28 12:32:50;;;;;;;30.98;21.00;;;;;;;;;;6243069;22;20000;-44
2021/05/28 12:35:16;;;;;;;30.85;20.58;;;;;;;;;;6242192;22;20024;-47
2021/05/28 12:38:01;;;;;;;29.00;19.92;;;;;;;;;;6242875;22;20024;-46
2021/05/28 12:40:27;;;;;;;27.15;19.30;;;;;;;;;;6242016;22;20346;-45
2021/05/28 12:42:57;;;;;;;25.58;18.30;;;;;;;;;;6242518;22;20000;-47
2021/05/28 12:45:32;;;;;;;33.22;20.00;;;;;;;;;;6242258;22;20099;-46
2021/05/28 12:48:01;;;;;;;28.92;18.17;;;;;;;;;;6240706;23;20058;-49
2021/05/28 12:50:35;;;;;;;26.13;18.77;;;;;;;;;;6242651;22;20076;-46
2021/05/28 12:53:02;;;;;;;32.50;19.65;;;;;;;;;;6242287;22;20436;-48
2021/05/28 12:55:28;;;;;;;;;;;;;;;;;;6242692;22;20046;-48
2021/05/28 12:57:55;;;;;;;26.03;18.70;;;;;;;;;;6240415;23;20309;-49
2021/05/28 13:00:31;;;;;;;24.55;17.90;;;;;;;;;;6240844;22;20290;-49
2021/05/28 13:02:57;;;;;;;25.73;16.43;;;;;;;;;;6240775;23;20039;-48
2021/05/28 13:05:39;;;;;;;21.88;15.25;;;;;;;;;;6241070;23;20235;-50
2021/05/28 13:08:08;;;;;;;21.13;15.18;;;;;;;;;;6233635;23;20080;-48
2021/05/28 13:10:34;;;;;;;21.50;14.05;;;;;;;;;;6240444;22;20012;-49
2021/05/28 13:13:21;;;;;;;19.58;14.20;;;;;;;;;;6241356;22;20012;-49
2021/05/28 13:15:47;;;;;;;23.58;15.10;;;;;;;;;;6241597;22;20073;-46
2021/05/28 13:18:14;;;;;;;16.83;13.70;;;;;;;;;;6240860;22;20336;-48
2021/05/28 13:20:40;;;;;;;24.88;14.65;;;;;;;;;;6241786;22;20004;-48
2021/05/28 13:23:17;;;;;;;22.65;14.15;;;;;;;;;;6239798;23;20015;-51
2021/05/28 13:25:43;;;;;;;17.98;13.20;;;;;;;;;;6240996;22;20076;-49
2021/05/28 13:28:09;;;;;;;16.88;12.75;;;;;;;;;;6242043;23;20099;-48
2021/05/28 13:30:36;;;;;;;19.30;13.93;;;;;;;;;;6241481;22;20410;-47
2021/05/28 13:33:02;;;;;;;;;;;;;;;;;;6241926;22;20035;-49
2021/05/28 13:35:28;;;;;;;15.70;13.07;;;;;;;;;;6241854;22;19907;-47
2021/05/28 13:37:54;;;;;;;19.58;13.20;;;;;;;;;;6241023;22;20085;-47
2021/05/28 13:40:21;;;;;;;20.48;13.05;;;;;;;;;;6241973;22;20011;-46
2021/05/28 13:42:47;;;;;;;17.63;12.52;;;;;;;;;;6240930;22;20086;-48
2021/05/28 13:45:13;;;;;;;16.10;12.23;;;;;;;;;;6241906;22;20047;-46
2021/05/28 13:47:39;;;;;;;16.50;11.43;;;;;;;;;;6241477;22;20004;-48
2021/05/28 13:50:06;;;;;;;20.87;12.10;;;;;;;;;;6240387;22;20004;-48
2021/05/28 13:52:32;;;;;;;14.38;11.25;;;;;;;;;;6239823;22;20008;-50
2021/05/28 13:54:58;;;;;;;15.32;12.13;;;;;;;;;;6239154;23;20030;-47
2021/05/28 13:57:25;;;;;;;16.52;11.43;;;;;;;;;;6239504;22;20000;-50
2021/05/28 13:59:51;;;;;;;17.52;11.05;;;;;;;;;;6240893;22;20425;-50
2021/05/28 14:02:17;;;;;;;16.90;11.75;;;;;;;;;;6241141;22;20004;-47
2021/05/28 14:04:43;;;;;;;19.02;12.65;;;;;;;;;;6241019;22;20023;-47
2021/05/28 14:07:09;;;;;;;13.52;11.27;;;;;;;;;;6241388;22;20073;-46
2021/05/28 14:09:36;;;;;;;16.00;12.05;;;;;;;;;;6240949;22;20012;-47
2021/05/28 14:12:02;;;;;;;13.05;10.65;;;;;;;;;;6240909;22;20030;-46
2021/05/28 14:14:28;;;;;;;14.77;10.95;;;;;;;;;;6242188;22;19996;-47
2021/05/28 14:16:54;;;;;;;12.80;10.50;;;;;;;;;;6240640;22;20218;-46
2021/05/28 14:19:21;;;;;;;14.88;11.15;;;;;;;;;;6241144;22;20318;-47
2021/05/28 14:21:47;;;;;;;14.43;10.63;;;;;;;;;;6240975;22;20004;-44
2021/05/28 14:24:13;;;;;;;16.33;11.03;;;;;;;;;;6240890;22;20039;-45
2021/05/28 14:26:41;;;;;;;15.45;11.32;;;;;;;;;;6238689;22;20077;-45
2021/05/28 14:29:07;;;;;;;15.75;11.10;;;;;;;;;;6241611;22;20448;-45
2021/05/28 14:31:33;;;;;;;15.93;10.73;;;;;;;;;;6241322;22;20031;-45
2021/05/28 14:34:00;;;;;;;15.07;10.73;;;;;;;;;;6237032;23;20012;-45
2021/05/28 14:36:31;;;;;;;13.88;10.48;;;;;;;;;;6238445;22;20000;-50
2021/05/28 14:38:59;;;;;;;13.25;10.02;;;;;;;;;;6239216;23;20046;-47
2021/05/28 14:41:25;;;;;;;12.23;9.68;;;;;;;;;;6239827;23;20004;-48
2021/05/28 14:43:51;;;;;;;12.88;9.88;;;;;;;;;;6241815;22;20016;-52
2021/05/28 14:46:18;;;;;;;14.18;9.98;;;;;;;;;;6237528;22;20321;-47
2021/05/28 14:48:45;;;;;;;10.15;9.02;;;;;;;;;;6239902;22;20012;-46
2021/05/28 14:51:11;;;;;;;12.30;10.48;;;;;;;;;;6240022;22;20066;-45
2021/05/28 14:53:38;;;;;;;13.15;9.38;;;;;;;;;;6241382;22;20131;-46
2021/05/28 14:56:05;;;;;;;9.77;8.65;;;;;;;;;;6241938;22;20000;-45
2021/05/28 14:58:31;;;;;;;14.73;9.73;;;;;;;;;;6241034;22;20096;-47
2021/05/28 15:00:59;;;;;;;10.98;8.82;;;;;;;;;;6241280;22;20007;-48
2021/05/28 15:03:29;;;;;;;12.10;8.82;;;;;;;;;;6240766;22;20008;-47
2021/05/28 15:05:55;;;;;;;9.80;7.97;;;;;;;;;;6239232;22;19997;-47
2021/05/28 15:08:22;;;;;;;12.57;8.47;;;;;;;;;;6241435;22;20002;-48
2021/05/28 15:10:49;;;;;;;8.65;6.80;;;;;;;;;;6240492;23;21283;-51
2021/05/28 15:13:15;;;;;;;8.90;7.20;;;;;;;;;;6240377;22;20448;-47
2021/05/28 15:15:42;;;;;;;9.38;7.32;;;;;;;;;;6266519;22;20274;-46
2021/05/28 15:18:09;;;;;;;8.40;6.80;;;;;;;;;;6241751;22;20016;-45
2021/05/28 15:20:35;;;;;;;;;;;;;;;;;;6268504;22;20004;-46
2021/05/28 15:23:01;;;;;;;9.43;6.68;;;;;;;;;;6242203;22;20351;-46
2021/05/28 15:25:27;;;;;;;9.60;6.32;;;;;;;;;;6241606;22;20019;-45
2021/05/28 15:27:53;;;;;;;7.73;5.97;;;;;;;;;;6265779;22;20035;-46
2021/05/28 15:30:20;;;;;;;8.07;6.13;;;;;;;;;;6241464;22;20040;-47
2021/05/28 15:32:46;;;;;;;6.35;5.75;;;;;;;;;;6241491;22;20000;-46
2021/05/28 15:35:13;;;;;;;6.45;5.70;;;;;;;;;;6242841;22;19997;-43
2021/05/28 15:37:39;;;;;;;6.25;5.07;;;;;;;;;;6239992;22;20090;-45
2021/05/28 15:40:07;;;;;;;5.45;4.43;;;;;;;;;;6242906;22;20004;-43
2021/05/28 15:42:33;;;;;;;;;;;;;;;;;;6242581;22;20017;-45
2021/05/28 15:44:59;;;;;;;4.47;3.70;;;;;;;;;;6240133;23;19915;-44
2021/05/28 15:47:26;;;;;;;4.70;3.40;;;;;;;;;;6241237;22;20000;-48
2021/05/28 15:49:52;;;;;;;6.03;3.83;;;;;;;;;;6266162;22;20007;-46
2021/05/28 15:52:18;;;;;;;5.27;3.30;;;;;;;;;;6242420;22;20078;-44
2021/05/28 15:54:44;;;;;;;4.05;3.20;;;;;;;;;;6242476;22;20030;-45
2021/05/28 15:57:11;;;;;;;3.13;2.55;;;;;;;;;;6242188;22;20680;-44
2021/05/28 15:59:37;;;;;;;3.13;2.70;;;;;;;;;;6242750;22;20012;-44
2021/05/28 16:02:03;;;;;;;3.93;3.20;;;;;;;;;;6237609;22;19997;-46
2021/05/28 16:04:30;;;;;;;4.53;2.50;;;;;;;;;;6242154;22;20266;-47
2021/05/28 16:07:01;;;;;;;4.60;2.83;;;;;;;;;;6241025;22;20215;-49
2021/05/28 16:09:30;;;;;;;3.75;2.40;;;;;;;;;;6240323;22;20087;-52
2021/05/28 16:11:59;;;;;;;5.45;2.35;;;;;;;;;;6241500;22;20442;-48
2021/05/28 16:14:28;;;;;;;3.95;2.80;;;;;;;;;;6242356;22;20003;-49
2021/05/28 16:16:54;;;;;;;4.93;3.22;;;;;;;;;;6241770;22;20000;-48
2021/05/28 16:19:20;;;;;;;3.42;2.35;;;;;;;;;;6266404;22;20004;-51
2021/05/28 16:21:47;;;;;;;3.92;2.40;;;;;;;;;;6265554;22;20005;-49
2021/05/28 16:27:17;;;;;;;3.55;2.50;;;;;;;;;;6242099;23;20408;-48
2021/05/28 16:29:46;;;;;;;5.30;2.70;;;;;;;;;;6241979;22;20081;-48
2021/05/28 16:32:15;;;;;;;3.25;2.35;;;;;;;;;;6242109;22;20392;-51
2021/05/28 16:34:46;;;;;;;3.95;2.60;;;;;;;;;;6242294;22;20464;-48
2021/05/28 16:37:12;;;;;;;2.60;2.17;;;;;;;;;;6242627;22;20007;-48
2021/05/28 16:39:38;;;;;;;3.83;2.20;;;;;;;;;;6242074;22;20028;-47
2021/05/28 16:42:07;;;;;;;3.13;2.30;;;;;;;;;;6242170;23;20078;-48
2021/05/28 16:44:38;;;;;;;5.10;2.85;;;;;;;;;;6242193;22;20034;-48
2021/05/28 16:47:06;;;;;;;3.08;2.33;;;;;;;;;;6241520;22;20015;-49
2021/05/28 16:49:32;;;;;;;3.25;2.33;;;;;;;;;;6241718;22;20000;-48
2021/05/28 16:52:01;;;;;;;3.05;2.40;;;;;;;;;;6242416;22;20000;-48
2021/05/28 16:54:30;;;;;;;2.88;2.20;;;;;;;;;;6242334;22;20012;-52
2021/05/28 16:57:00;;;;;;;3.22;2.20;;;;;;;;;;6242396;22;20397;-48
2021/05/28 16:59:26;;;;;;;3.65;2.30;;;;;;;;;;6242705;22;20138;-50
2021/05/28 17:01:58;;;;;;;3.95;2.42;;;;;;;;;;6241897;22;20071;-51
2021/05/28 17:04:24;;;;;;;2.47;2.00;;;;;;;;;;6265734;22;20091;-48
2021/05/28 17:06:50;;;;;;;3.05;2.10;;;;;;;;;;6242010;22;20007;-48
2021/05/28 17:09:19;;;;;;;2.50;2.03;;;;;;;;;;6241652;22;20007;-50
2021/05/28 17:11:48;;;;;;;2.72;2.03;;;;;;;;;;6241817;22;20043;-49
2021/05/28 17:14:14;;;;;;;3.38;1.90;;;;;;;;;;6242287;22;20123;-49
2021/05/28 17:16:43;;;;;;;2.80;2.30;;;;;;;;;;6241479;22;20114;-49
2021/05/28 17:19:12;;;;;;;2.40;2.10;;;;;;;;;;6241619;22;19996;-50
2021/05/28 17:21:41;;;;;;;3.65;2.13;;;;;;;;;;6241754;22;20025;-49
2021/05/28 17:24:07;;;;;;;3.90;2.20;;;;;;;;;;6241241;22;20440;-51
2021/05/28 17:26:33;;;;;;;3.40;2.07;;;;;;;;;;6241786;22;20006;-50
2021/05/28 17:29:02;;;;;;;3.70;2.28;;;;;;;;;;6241675;22;20012;-49
2021/05/28 17:31:28;;;;;;;2.97;1.90;;;;;;;;;;6241793;22;20004;-54
2021/05/28 17:33:56;;;;;;;2.53;1.98;;;;;;;;;;6241054;22;20012;-48
2021/05/28 17:36:23;;;;;;;2.47;2.28;;;;;;;;;;6241150;22;20005;-51
2021/05/28 17:38:49;;;;;;;2.63;2.42;;;;;;;;;;6241645;22;20000;-48
2021/05/28 17:41:16;;;;;;;3.00;2.28;;;;;;;;;;6241886;22;20092;-52
2021/05/28 21:06:55;;;;;;;5.20;2.20;;;;;;;;;;6195164;22;20038;-54
2021/05/28 21:09:22;;;;;;;3.40;2.30;;;;;;;;;;6242180;22;20008;-53
2021/05/28 21:11:48;;;;;;;3.13;2.38;;;;;;;;;;6242052;22;20000;-50
2021/05/28 21:14:17;;;;;;;3.58;2.28;;;;;;;;;;6241890;22;20011;-46
2021/05/28 21:16:43;;;;;;;5.63;2.53;;;;;;;;;;6241812;22;20467;-49
2021/05/28 21:19:10;;;;;;;4.72;2.28;;;;;;;;;;6240106;23;20027;-50
2021/05/28 21:21:37;;;;;;;3.33;2.42;;;;;;;;;;6242073;22;20297;-50
2021/05/28 21:24:03;;;;;;;;;;;;;;;;;;6242911;22;20015;-48
2021/05/28 21:26:29;;;;;;;3.53;2.27;;;;;;;;;;6242493;22;19899;-48
